createdAt,value
2022-12-24T00:02:56.432Z,97139.66
2022-12-24T00:06:03.771Z,97150.28
2022-12-24T00:09:05.492Z,97153.91
2022-12-24T00:12:07.404Z,97141.56
2022-12-24T00:15:09.369Z,97158.47
2022-12-24T00:18:10.908Z,97167.28
2022-12-24T00:21:13.889Z,97178.78
2022-12-24T00:24:15.437Z,97174.31
2022-12-24T00:27:17.250Z,97169.00
2022-12-24T00:30:18.941Z,97180.69
2022-12-24T00:33:24.705Z,97182.47
2022-12-24T00:36:27.830Z,97176.28
2022-12-24T00:39:29.715Z,97189.59
2022-12-24T00:42:31.227Z,97197.56
2022-12-24T00:45:32.697Z,97189.59
2022-12-24T00:48:34.384Z,97188.84
2022-12-24T00:51:37.417Z,97187.03
2022-12-24T00:54:39.015Z,97196.06
2022-12-24T00:57:40.547Z,97213.81
2022-12-24T01:00:42.057Z,97224.56
2022-12-24T01:03:43.739Z,97226.44
2022-12-24T01:06:46.703Z,97226.44
2022-12-24T01:09:48.180Z,97253.03
2022-12-24T01:12:49.752Z,97252.25
2022-12-24T01:15:51.673Z,97253.28
2022-12-24T01:18:53.189Z,97257.72
2022-12-24T01:21:56.073Z,97264.09
2022-12-24T01:24:57.586Z,97263.25
2022-12-24T01:27:59.194Z,97270.47
2022-12-24T01:31:00.952Z,97288.13
2022-12-24T01:34:03.635Z,97289.81
2022-12-24T01:37:06.636Z,97280.16
2022-12-24T01:40:29.316Z,97307.50
2022-12-24T01:43:32.585Z,97313.75
2022-12-24T01:46:34.146Z,97299.88
2022-12-24T01:49:37.582Z,97315.91
2022-12-24T01:52:40.617Z,97323.22
2022-12-24T01:55:42.961Z,97317.31
2022-12-24T01:58:46.705Z,97334.19
2022-12-24T02:01:49.813Z,97339.69
2022-12-24T02:04:54.921Z,97344.16
2022-12-24T02:08:01.910Z,97350.50
2022-12-24T02:11:03.556Z,97342.53
2022-12-24T02:14:05.391Z,97345.19
2022-12-24T02:17:11.607Z,97357.72
2022-12-24T02:20:32.229Z,97374.44
2022-12-24T02:23:54.341Z,97384.38
2022-12-24T02:27:04.528Z,97372.13
2022-12-24T02:30:16.177Z,97378.38
2022-12-24T02:33:29.491Z,97368.88
2022-12-24T02:36:33.111Z,97349.41
2022-12-24T02:39:38.454Z,97385.69
2022-12-24T02:42:41.398Z,97398.09
2022-12-24T02:45:46.741Z,97375.72
2022-12-24T02:48:49.043Z,97381.31
2022-12-24T02:51:50.793Z,97386.34
2022-12-24T02:54:52.416Z,97380.09
2022-12-24T02:58:00.930Z,97401.25
2022-12-24T03:01:16.848Z,97396.66
2022-12-24T03:04:39.599Z,97396.97
2022-12-24T03:07:45.083Z,97417.28
2022-12-24T03:10:51.579Z,97414.63
2022-12-24T03:13:55.102Z,97407.50
2022-12-24T03:16:59.082Z,97416.69
2022-12-24T03:20:00.691Z,97412.50
2022-12-24T03:23:02.551Z,97427.66
2022-12-24T03:26:07.096Z,97436.59
2022-12-24T03:29:08.679Z,97451.50
2022-12-24T03:32:11.925Z,97452.59
2022-12-24T03:35:13.727Z,97461.34
2022-12-24T03:38:15.239Z,97464.88
2022-12-24T03:41:16.833Z,97472.91
2022-12-24T03:44:18.662Z,97491.69
2022-12-24T03:47:21.721Z,97511.31
2022-12-24T03:50:23.395Z,97495.63
2022-12-24T03:53:25.097Z,97506.41
2022-12-24T03:56:27.213Z,97514.47
2022-12-24T03:59:31.976Z,97508.31
2022-12-24T04:02:35.138Z,97514.63
2022-12-24T04:05:36.764Z,97509.25
2022-12-24T04:08:38.378Z,97517.91
2022-12-24T04:11:39.961Z,97519.69
2022-12-24T04:14:41.495Z,97526.72
2022-12-24T04:17:44.461Z,97529.38
2022-12-24T04:20:46.451Z,97534.63
2022-12-24T04:23:48.201Z,97548.66
2022-12-24T04:26:49.868Z,97537.28
2022-12-24T04:29:51.560Z,97545.31
2022-12-24T04:32:54.506Z,97547.91
2022-12-24T04:35:57.079Z,97553.28
2022-12-24T04:38:58.688Z,97561.19
2022-12-24T04:42:00.289Z,97562.97
2022-12-24T04:45:01.904Z,97565.81
2022-12-24T04:48:05.134Z,97564.94
2022-12-24T04:51:07.692Z,97569.50
2022-12-24T04:54:09.476Z,97566.75
2022-12-24T04:57:11.048Z,97576.50
2022-12-24T05:00:12.989Z,97580.88
2022-12-24T05:03:15.917Z,97586.97
2022-12-24T05:06:20.054Z,97578.06
2022-12-24T05:09:21.797Z,97588.69
2022-12-24T05:12:23.729Z,97581.66
2022-12-24T05:15:25.407Z,97580.81
2022-12-24T05:18:28.478Z,97585.34
2022-12-24T05:21:30.130Z,97586.41
2022-12-24T05:24:50.246Z,97597.03
2022-12-24T05:27:53.051Z,97606.97
2022-12-24T05:30:55.086Z,97601.84
2022-12-24T05:34:01.568Z,97604.63
2022-12-24T05:37:03.309Z,97606.50
2022-12-24T05:40:05.602Z,97617.91
2022-12-24T05:43:07.354Z,97618.84
2022-12-24T05:46:09.983Z,97618.06
2022-12-24T05:49:13.375Z,97612.75
2022-12-24T05:52:14.892Z,97619.09
2022-12-24T05:55:16.574Z,97608.66
2022-12-24T05:58:18.227Z,97627.44
2022-12-24T06:01:20.736Z,97631.91
2022-12-24T06:04:28.660Z,97650.28
2022-12-24T06:07:30.865Z,97648.56
2022-12-24T06:10:32.503Z,97637.22
2022-12-24T06:13:34.580Z,97641.66
2022-12-24T06:16:36.133Z,97642.69
2022-12-24T06:19:39.455Z,97646.38
2022-12-24T06:22:41.088Z,97656.03
2022-12-24T06:25:42.765Z,97657.94
2022-12-24T06:28:47.557Z,97657.97
2022-12-24T06:31:49.174Z,97665.31
2022-12-24T06:34:52.258Z,97659.06
2022-12-24T06:37:53.910Z,97657.19
2022-12-24T06:40:56.033Z,97663.16
2022-12-24T06:43:57.630Z,97667.44
2022-12-24T06:46:59.372Z,97671.97
2022-12-24T06:50:02.366Z,97670.25
2022-12-24T06:53:03.921Z,97680.72
2022-12-24T06:56:06.747Z,97692.19
2022-12-24T06:59:08.423Z,97682.44
2022-12-24T07:02:10.363Z,97689.47
2022-12-24T07:05:13.761Z,97697.50
2022-12-24T07:08:15.289Z,97687.75
2022-12-24T07:11:16.848Z,97692.13
2022-12-24T07:14:18.439Z,97695.63
2022-12-24T07:17:20.212Z,97706.25
2022-12-24T07:20:23.317Z,97710.72
2022-12-24T07:23:25.156Z,97715.31
2022-12-24T07:26:27.037Z,97721.47
2022-12-24T07:29:32.020Z,97733.16
2022-12-24T07:32:34.045Z,97727.00
2022-12-24T07:35:37.104Z,97735.81
2022-12-24T07:38:39.059Z,97734.84
2022-12-24T07:41:41.831Z,97736.72
2022-12-24T07:44:43.806Z,97742.03
2022-12-24T07:47:45.288Z,97748.81
2022-12-24T07:50:50.254Z,97753.13
2022-12-24T07:53:54.307Z,97759.19
2022-12-24T07:56:55.899Z,97752.03
2022-12-24T07:59:57.429Z,97764.66
2022-12-24T08:03:00.418Z,97749.75
2022-12-24T08:06:03.614Z,97766.78
2022-12-24T08:09:05.832Z,97770.22
2022-12-24T08:12:07.634Z,97783.34
2022-12-24T08:15:09.633Z,97767.97
2022-12-24T08:18:14.863Z,97770.56
2022-12-24T08:21:18.051Z,97774.28
2022-12-24T08:24:19.913Z,97778.88
2022-12-24T08:27:21.479Z,97779.13
2022-12-24T08:30:23.246Z,97784.19
2022-12-24T08:33:24.757Z,97800.84
2022-12-24T08:36:27.884Z,97801.78
2022-12-24T08:39:29.496Z,97802.63
2022-12-24T08:42:31.143Z,97818.72
2022-12-24T08:45:39.661Z,97815.28
2022-12-24T08:48:41.971Z,97817.78
2022-12-24T08:51:44.977Z,97825.81
2022-12-24T08:54:46.603Z,97833.72
2022-12-24T08:57:48.886Z,97831.06
2022-12-24T09:00:50.505Z,97845.19
2022-12-24T09:03:52.402Z,97840.81
2022-12-24T09:06:55.817Z,97843.41
2022-12-24T09:09:58.308Z,97854.09
2022-12-24T09:13:00.154Z,97853.41
2022-12-24T09:16:02.258Z,97866.88
2022-12-24T09:19:03.920Z,97861.63
2022-12-24T09:22:06.813Z,97857.19
2022-12-24T09:25:10.559Z,97864.88
2022-12-24T09:28:13.053Z,97871.03
2022-12-24T09:31:15.202Z,97883.38
2022-12-24T09:34:16.940Z,97884.94
2022-12-24T09:37:20.038Z,97887.56
2022-12-24T09:40:25.057Z,97906.09
2022-12-24T09:43:29.037Z,97893.16
2022-12-24T09:46:33.180Z,97894.56
2022-12-24T09:49:40.084Z,97896.38
2022-12-24T09:52:44.240Z,97904.59
2022-12-24T09:55:47.519Z,97909.91
2022-12-24T09:58:50.837Z,97921.31
2022-12-24T10:01:53.126Z,97921.13
2022-12-24T10:04:54.807Z,97911.03
2022-12-24T10:08:02.971Z,97922.72
2022-12-24T10:11:07.766Z,97926.00
2022-12-24T10:14:16.684Z,97923.09
2022-12-24T10:17:25.359Z,97933.47
2022-12-24T10:20:35.339Z,97937.81
2022-12-24T10:23:41.607Z,97937.66
2022-12-24T10:26:45.180Z,97943.69
2022-12-24T10:29:49.474Z,97939.31
2022-12-24T10:32:54.841Z,97944.53
2022-12-24T10:35:57.155Z,97947.19
2022-12-24T10:39:00.349Z,97943.69
2022-12-24T10:42:01.998Z,97952.44
2022-12-24T10:45:04.631Z,97961.06
2022-12-24T10:48:09.430Z,97959.28
2022-12-24T10:51:15.015Z,97969.75
2022-12-24T10:54:26.266Z,97966.06
2022-12-24T10:57:29.155Z,97966.03
2022-12-24T11:00:35.902Z,97979.31
2022-12-24T11:03:39.270Z,97976.50
2022-12-24T11:06:51.571Z,97990.50
2022-12-24T11:09:58.680Z,97978.84
2022-12-24T11:13:35.616Z,97984.06
2022-12-24T11:16:25.668Z,97978.66
2022-12-24T11:19:34.332Z,97979.53
2022-12-24T11:22:36.055Z,97989.22
2022-12-24T11:25:40.218Z,97990.06
2022-12-24T11:28:41.724Z,97982.88
2022-12-24T11:31:43.353Z,97990.78
2022-12-24T11:34:45.288Z,97990.78
2022-12-24T11:37:47.127Z,97999.84
2022-12-24T11:40:51.126Z,97989.22
2022-12-24T11:44:03.796Z,97986.47
2022-12-24T11:47:05.415Z,97982.81
2022-12-24T11:50:20.601Z,97993.38
2022-12-24T11:53:26.038Z,97988.13
2022-12-24T11:56:33.550Z,97976.63
2022-12-24T11:59:39.093Z,97982.59
2022-12-24T12:02:42.782Z,97981.44
2022-12-24T12:05:45.006Z,97995.38
2022-12-24T12:08:47.410Z,97980.03
2022-12-24T12:11:55.948Z,97998.56
2022-12-24T12:15:00.233Z,97995.09
2022-12-24T12:18:07.086Z,98003.06
2022-12-24T12:21:12.408Z,98000.47
2022-12-24T12:24:16.932Z,98000.53
2022-12-24T12:27:25.296Z,97988.19
2022-12-24T12:30:26.994Z,97985.69
2022-12-24T12:33:31.855Z,97982.00
2022-12-24T12:36:36.340Z,97986.47
2022-12-24T12:39:37.892Z,97989.31
2022-12-24T12:42:45.450Z,97992.22
2022-12-24T12:45:53.009Z,97997.84
2022-12-24T12:49:03.253Z,98013.81
2022-12-24T12:52:08.526Z,98012.00
2022-12-24T12:55:24.374Z,98015.63
2022-12-24T12:58:30.394Z,98014.72
2022-12-24T13:01:38.230Z,98010.47
2022-12-24T13:05:00.910Z,98024.72
2022-12-24T13:08:19.164Z,98020.19
2022-12-24T13:11:28.172Z,98023.25
2022-12-24T13:14:56.848Z,98029.28
2022-12-24T13:18:08.251Z,98039.00
2022-12-24T13:21:15.784Z,98043.16
2022-12-24T13:24:21.277Z,98042.16
2022-12-24T13:27:24.197Z,98036.06
2022-12-24T13:30:33.840Z,98045.75
2022-12-24T13:33:49.865Z,98055.38
2022-12-24T13:37:02.805Z,98057.94
2022-12-24T13:40:15.676Z,98055.31
2022-12-24T13:43:17.471Z,98060.53
2022-12-24T13:46:33.899Z,98061.38
2022-12-24T13:49:38.264Z,98057.09
2022-12-24T13:52:42.640Z,98065.09
2022-12-24T13:55:49.402Z,98067.81
2022-12-24T13:58:52.830Z,98078.53
2022-12-24T14:01:54.715Z,98082.03
2022-12-24T14:05:01.222Z,98081.97
2022-12-24T14:08:05.132Z,98089.78
2022-12-24T14:11:09.228Z,98099.41
2022-12-24T14:14:25.448Z,98099.31
2022-12-24T14:17:28.205Z,98103.59
2022-12-24T14:20:33.238Z,98102.84
2022-12-24T14:23:44.093Z,98107.47
2022-12-24T14:26:47.946Z,98112.72
2022-12-24T14:29:51.705Z,98115.69
2022-12-24T14:32:53.730Z,98118.28
2022-12-24T14:35:57.105Z,98128.94
2022-12-24T14:39:00.457Z,98125.47
2022-12-24T14:42:10.673Z,98138.81
2022-12-24T14:45:17.550Z,98137.25
2022-12-24T14:48:22.196Z,98140.03
2022-12-24T14:51:32.021Z,98148.94
2022-12-24T14:54:35.716Z,98144.56
2022-12-24T14:57:37.374Z,98151.91
2022-12-24T15:00:42.338Z,98152.16
2022-12-24T15:03:44.050Z,98150.59
2022-12-24T15:06:50.421Z,98163.09
2022-12-24T15:09:54.249Z,98177.44
2022-12-24T15:12:57.366Z,98179.44
2022-12-24T15:15:59.090Z,98184.16
2022-12-24T15:19:02.660Z,98192.19
2022-12-24T15:22:09.200Z,98196.66
2022-12-24T15:25:17.679Z,98202.09
2022-12-24T15:28:19.831Z,98202.22
2022-12-24T15:31:22.338Z,98213.84
2022-12-24T15:34:28.063Z,98214.91
2022-12-24T15:37:34.817Z,98215.50
2022-12-24T15:40:36.599Z,98214.63
2022-12-24T15:43:40.084Z,98215.72
2022-12-24T15:46:41.721Z,98213.97
2022-12-24T15:49:47.976Z,98215.09
2022-12-24T15:53:20.222Z,98217.81
2022-12-24T15:56:14.381Z,98212.41
2022-12-24T15:59:31.614Z,98217.22
2022-12-24T16:02:38.379Z,98217.53
2022-12-24T16:05:40.355Z,98226.44
2022-12-24T16:08:43.761Z,98225.50
2022-12-24T16:11:45.549Z,98235.28
2022-12-24T16:14:49.608Z,98240.38
2022-12-24T16:17:53.090Z,98235.22
2022-12-24T16:20:55.756Z,98239.72
2022-12-24T16:24:06.371Z,98247.75
2022-12-24T16:27:10.673Z,98250.22
2022-12-24T16:30:12.756Z,98252.38
2022-12-24T16:33:15.793Z,98259.38
2022-12-24T16:36:17.307Z,98258.47
2022-12-24T16:39:23.876Z,98255.78
2022-12-24T16:42:44.169Z,98269.19
2022-12-24T16:45:46.643Z,98274.56
2022-12-24T16:48:49.003Z,98271.31
2022-12-24T16:51:50.782Z,98272.03
2022-12-24T16:54:54.159Z,98267.78
2022-12-24T16:57:56.260Z,98281.94
2022-12-24T17:00:59.453Z,98281.22
2022-12-24T17:04:01.089Z,98286.66
2022-12-24T17:07:02.717Z,98290.19
2022-12-24T17:10:08.695Z,98291.00
2022-12-24T17:13:10.449Z,98292.97
2022-12-24T17:16:12.380Z,98293.00
2022-12-24T17:19:13.924Z,98293.19
2022-12-24T17:22:15.728Z,98295.78
2022-12-24T17:25:18.748Z,98295.78
2022-12-24T17:28:20.274Z,98294.13
2022-12-24T17:31:22.182Z,98302.88
2022-12-24T17:34:23.873Z,98299.38
2022-12-24T17:37:25.419Z,98301.03
2022-12-24T17:40:29.726Z,98311.72
2022-12-24T17:43:32.547Z,98307.41
2022-12-24T17:46:34.242Z,98319.06
2022-12-24T17:49:36.057Z,98326.19
2022-12-24T17:52:37.594Z,98321.88
2022-12-24T17:55:41.142Z,98323.81
2022-12-24T17:58:43.795Z,98324.72
2022-12-24T18:01:45.519Z,98322.16
2022-12-24T18:04:47.373Z,98325.75
2022-12-24T18:07:49.014Z,98330.31
2022-12-24T18:10:56.460Z,98339.34
2022-12-24T18:14:00.125Z,98336.69
2022-12-24T18:17:04.963Z,98342.78
2022-12-24T18:20:07.650Z,98329.59
2022-12-24T18:23:09.288Z,98333.78
2022-12-24T18:26:12.501Z,98339.09
2022-12-24T18:29:14.217Z,98335.50
2022-12-24T18:32:16.909Z,98340.94
2022-12-24T18:35:19.076Z,98343.78
2022-12-24T18:38:20.625Z,98350.75
2022-12-24T18:41:24.663Z,98339.34
2022-12-24T18:44:26.247Z,98347.56
2022-12-24T18:47:27.818Z,98362.38
2022-12-24T18:50:29.486Z,98365.16
2022-12-24T18:53:31.162Z,98359.00
2022-12-24T18:56:34.257Z,98345.84
2022-12-24T18:59:39.222Z,98355.41
2022-12-24T19:02:40.950Z,98348.31
2022-12-24T19:05:42.576Z,98350.41
2022-12-24T19:09:01.160Z,98344.28
2022-12-24T19:12:05.334Z,98348.78
2022-12-24T19:15:07.355Z,98345.97
2022-12-24T19:18:08.964Z,98347.91
2022-12-24T19:21:12.104Z,98345.44
2022-12-24T19:24:14.369Z,98348.25
2022-12-24T19:27:17.376Z,98361.75
2022-12-24T19:30:19.007Z,98360.53
2022-12-24T19:33:20.659Z,98377.78
2022-12-24T19:36:23.823Z,98380.69
2022-12-24T19:39:31.556Z,98378.28
2022-12-24T19:42:35.082Z,98388.88
2022-12-24T19:45:36.676Z,98396.72
2022-12-24T19:48:38.723Z,98394.75
2022-12-24T19:51:40.257Z,98396.91
2022-12-24T19:54:42.800Z,98397.59
2022-12-24T19:57:45.729Z,98395.78
2022-12-24T20:00:47.653Z,98399.19
2022-12-24T20:03:49.817Z,98399.25
2022-12-24T20:06:54.799Z,98400.25
2022-12-24T20:10:01.631Z,98408.38
2022-12-24T20:13:06.307Z,98410.16
2022-12-24T20:16:09.157Z,98404.19
2022-12-24T20:19:12.976Z,98402.22
2022-12-24T20:22:14.533Z,98391.75
2022-12-24T20:25:16.291Z,98399.69
2022-12-24T20:28:19.148Z,98401.41
2022-12-24T20:31:22.136Z,98402.31
2022-12-24T20:34:23.785Z,98404.19
2022-12-24T20:37:25.270Z,98401.50
2022-12-24T20:40:26.920Z,98392.59
2022-12-24T20:43:35.336Z,98397.91
2022-12-24T20:46:39.987Z,98394.25
2022-12-24T20:49:41.988Z,98384.63
2022-12-24T20:52:43.680Z,98379.41
2022-12-24T20:55:45.151Z,98382.13
2022-12-24T20:58:48.173Z,98396.19
2022-12-24T21:01:49.729Z,98399.56
2022-12-24T21:04:54.180Z,98396.03
2022-12-24T21:07:59.626Z,98403.81
2022-12-24T21:11:19.970Z,98406.72
2022-12-24T21:14:23.843Z,98406.91
2022-12-24T21:17:25.500Z,98415.84
2022-12-24T21:20:31.239Z,98412.50
2022-12-24T21:23:32.756Z,98421.63
2022-12-24T21:26:34.820Z,98424.63
2022-12-24T21:29:37.716Z,98424.84
2022-12-24T21:32:39.452Z,98425.66
2022-12-24T21:35:40.930Z,98427.28
2022-12-24T21:38:42.556Z,98435.44
2022-12-24T21:41:44.302Z,98436.47
2022-12-24T21:44:47.435Z,98429.47
2022-12-24T21:47:49.413Z,98427.78
2022-12-24T21:50:56.755Z,98422.69
2022-12-24T21:54:17.079Z,98415.78
2022-12-24T21:57:37.403Z,98429.97
2022-12-24T22:00:40.403Z,98424.75
2022-12-24T22:03:42.075Z,98436.25
2022-12-24T22:07:03.327Z,98436.28
2022-12-24T22:10:27.917Z,98447.13
2022-12-24T22:13:30.932Z,98442.69
2022-12-24T22:16:33.831Z,98446.53
2022-12-24T22:19:35.466Z,98440.50
2022-12-24T22:22:37.022Z,98433.66
2022-12-24T22:25:39.138Z,98426.00
2022-12-24T22:28:40.809Z,98418.16
2022-12-24T22:31:43.878Z,98418.97
2022-12-24T22:34:45.526Z,98414.38
2022-12-24T22:37:47.251Z,98415.50
2022-12-24T22:40:49.398Z,98417.41
2022-12-24T22:43:50.985Z,98422.59
2022-12-24T22:46:53.823Z,98420.88
2022-12-24T22:49:58.547Z,98403.22
2022-12-24T22:53:00.207Z,98413.69
2022-12-24T22:56:02.002Z,98411.75
2022-12-24T22:59:04.310Z,98408.13
2022-12-24T23:02:07.604Z,98411.78
2022-12-24T23:05:11.464Z,98406.81
2022-12-24T23:08:13.533Z,98408.69
2022-12-24T23:11:15.154Z,98412.25
2022-12-24T23:14:36.174Z,98410.56
2022-12-24T23:17:39.136Z,98405.50
2022-12-24T23:20:41.202Z,98403.88
2022-12-24T23:23:42.839Z,98396.97
2022-12-24T23:26:44.362Z,98393.66
2022-12-24T23:29:46.034Z,98387.66
2022-12-24T23:32:48.918Z,98397.53
2022-12-24T23:35:50.418Z,98392.28
2022-12-24T23:38:52.941Z,98382.53
2022-12-24T23:41:54.516Z,98394.16
2022-12-24T23:44:56.150Z,98382.00
2022-12-24T23:47:59.051Z,98374.13
2022-12-24T23:51:05.534Z,98374.13
2022-12-24T23:54:07.144Z,98392.78
2022-12-24T23:57:08.701Z,98391.13
